Pipestone, MN

6:23 AM CST on December 11, 2019 (GMT -0600)
Pipestone Municipal

Weather History for KPQN - July, 2019

Change the Weather History Date:

Monday, July 15, 2019

  Actual Average Record
Temperature  
Mean Temperature 81 °F -  
Max Temperature 89 °F 80 °F 93 °F (2006)
Min Temperature 73 °F 60 °F 48 °F (2014)
Cooling Degree Days 16    
Growing Degree Days 31 (Base 50)    
Moisture  
Dew Point 73 °F    
Average Humidity 78    
Maximum Humidity 94    
Minimum Humidity 59    
Precipitation  
Precipitation 0.06 in - - ()
Sea Level Pressure  
Sea Level Pressure 29.89 in    
Wind  
Wind Speed 8 mph (WSW)    
Max Wind Speed 18 mph    
Max Gust Speed 23 mph    
Visibility 10 miles    
Events Rain , Thunderstorm    
Averages and records for this station are not official NWS values.
T = Trace of Precipitation, MM = Missing Value Source: NWS Daily Summary

Daily Weather History Graph

Daily Weather History Graph

Search for Another Location

Airport or City:

Astronomy

Jul. 15, 2019 Rise Set
Actual Time 5:56 AM CDT 9:05 PM CDT
Civil Twilight 5:21 AM CDT 9:40 PM CDT
Nautical Twilight 4:36 AM CDT 10:25 PM CDT
Astronomical Twilight 3:41 AM CDT 11:19 PM CDT
Moon 8:24 PM CDT (7/15) 4:43 AM CDT (7/15)
Length of Visible Light 16h 19m
Length of Day
15h 09m
Waxing Gibbous, 99% of the Moon is Illuminated
Jul 15
Waxing Gibbous
Jul 16
Full
Jul 24
Last Quarter
Jul 31
New
Aug 7
First Quarter

Hourly Weather History & Observations

Time (CDT) Temp. Heat Index Dew Point Humidity Pressure Visibility Wind Dir Wind Speed Gust Speed Precip Events Conditions
12:15 AM 75.2 °F - 73.4 °F 94% 29.95 in 10.0 mi SSW 9.2 mph - N/A   Scattered Clouds
12:16 AM 75.2 °F - 73.4 °F 94% 29.95 in 10.0 mi SSW 9.2 mph - N/A   Scattered Clouds
12:35 AM 77.0 °F - 73.4 °F 89% 29.96 in 10.0 mi SSW 6.9 mph - N/A Rain Light Rain
12:36 AM 75.2 °F - 73.4 °F 94% 29.96 in 10.0 mi SSW 6.9 mph - N/A Rain Light Rain
12:58 AM 75.2 °F - 73.4 °F 94% 29.95 in 10.0 mi South 9.2 mph - N/A   Clear
1:16 AM 75.2 °F - 73.4 °F 94% 29.95 in 10.0 mi SSW 8.1 mph - N/A   Clear
1:36 AM 75.2 °F - 71.6 °F 89% 29.95 in 10.0 mi SSW 8.1 mph - N/A Thunderstorm Clear
1:55 AM 75.2 °F - 71.6 °F 89% 29.95 in 10.0 mi SSW 8.1 mph - N/A   Clear
2:15 AM 75.2 °F - 71.6 °F 89% 29.96 in 10.0 mi WSW 3.5 mph - N/A   Clear
2:19 AM 75.2 °F - 71.6 °F 89% 29.96 in 10.0 mi WSW 3.5 mph - N/A   Clear
2:38 AM 75.2 °F - 71.6 °F 89% 29.96 in 10.0 mi WSW 3.5 mph - N/A Rain Light Rain
2:56 AM 75.2 °F - 71.6 °F 89% 29.95 in 10.0 mi SW 3.5 mph - N/A Rain Light Rain
3:15 AM 73.4 °F - 71.6 °F 94% 29.94 in 7.0 mi WSW 4.6 mph - N/A Rain Light Rain
3:16 AM 73.4 °F - 71.6 °F 94% 29.94 in 10.0 mi WSW 4.6 mph - 0.01 in Rain Light Rain
3:35 AM 73.4 °F - 71.6 °F 94% 29.94 in 10.0 mi WSW 6.9 mph - N/A Rain Light Rain
3:36 AM 73.4 °F - 71.6 °F 94% 29.94 in 10.0 mi WSW 6.9 mph - 0.01 in Rain Light Rain
3:58 AM 73.4 °F - 71.6 °F 94% 29.93 in 10.0 mi Calm Calm - N/A Rain , Thunderstorm Light Thunderstorms and Rain
4:16 AM 73.4 °F - 71.6 °F 94% 29.94 in 10.0 mi West 4.6 mph - N/A Rain , Thunderstorm Light Thunderstorms and Rain
4:35 AM 73.4 °F - 71.6 °F 94% 29.95 in 10.0 mi WSW 6.9 mph - N/A Rain , Thunderstorm Light Thunderstorms and Rain
4:36 AM 73.4 °F - 71.6 °F 94% 29.95 in 10.0 mi WSW 6.9 mph - N/A Rain , Thunderstorm Light Thunderstorms and Rain
4:55 AM 73.4 °F - 71.6 °F 94% 29.96 in 7.0 mi WSW 9.2 mph - N/A Rain Rain
4:56 AM 73.4 °F - 71.6 °F 94% 29.96 in 7.0 mi WSW 9.2 mph - N/A Rain Rain
5:19 AM 75.2 °F - 69.8 °F 83% 29.93 in 10.0 mi NW 6.9 mph - 0.01 in Rain Rain
5:36 AM 73.4 °F - 69.8 °F 88% 29.95 in 10.0 mi WSW 8.1 mph - 0.02 in Rain Light Rain
5:55 AM 73.4 °F - 69.8 °F 88% 29.95 in 7.0 mi WSW 3.5 mph - N/A Rain Light Rain
6:15 AM 73.4 °F - 69.8 °F 88% 29.94 in 10.0 mi Calm Calm - N/A Rain , Thunderstorm Light Thunderstorms and Rain
6:16 AM 73.4 °F - 69.8 °F 88% 29.94 in 10.0 mi Calm Calm - 0.01 in Rain , Thunderstorm Light Thunderstorms and Rain
6:39 AM 73.4 °F - 69.8 °F 88% 29.95 in 10.0 mi WSW 5.8 mph - 0.03 in Rain Light Rain
6:56 AM 73.4 °F - 69.8 °F 88% 29.90 in 10.0 mi South 8.1 mph - N/A Rain Light Rain
7:16 AM 73.4 °F - 69.8 °F 88% 29.90 in 10.0 mi SSW 9.2 mph - N/A Rain Light Rain
7:35 AM 73.4 °F - 69.8 °F 88% 29.88 in 10.0 mi SSW 10.4 mph - N/A   Clear
7:55 AM 73.4 °F - 69.8 °F 88% 29.88 in 10.0 mi SW 10.4 mph - N/A   Clear
7:59 AM 73.4 °F - 69.8 °F 88% 29.88 in 10.0 mi SW 12.7 mph - N/A   Clear
8:17 AM 75.2 °F - 71.6 °F 89% 29.88 in 10.0 mi SSW 13.8 mph - N/A   Clear
8:36 AM 75.2 °F - 71.6 °F 89% 29.87 in 10.0 mi SSW 11.5 mph - N/A   Clear
8:55 AM 77.0 °F - 71.6 °F 83% 29.87 in 10.0 mi SSW 11.5 mph - N/A   Clear
8:56 AM 77.0 °F - 71.6 °F 83% 29.87 in 10.0 mi SSW 12.7 mph - N/A   Clear
9:15 AM 78.8 °F - 73.4 °F 83% 29.88 in 10.0 mi SW 15.0 mph 20.7 mph N/A   Clear
9:19 AM 80.6 °F 85.4 °F 73.4 °F 79% 29.88 in 10.0 mi SW 16.1 mph 23.0 mph N/A   Clear
9:37 AM 80.6 °F 85.4 °F 73.4 °F 79% 29.88 in 10.0 mi SW 18.4 mph 23.0 mph N/A   Clear
9:56 AM 80.6 °F 85.4 °F 73.4 °F 79% 29.88 in 10.0 mi SW 18.4 mph 23.0 mph N/A   Clear
10:15 AM 80.6 °F 85.4 °F 73.4 °F 79% 29.89 in 10.0 mi WSW 16.1 mph 21.9 mph N/A   Clear
10:16 AM 80.6 °F 85.4 °F 73.4 °F 79% 29.89 in 10.0 mi WSW 15.0 mph 21.9 mph N/A   Clear
10:35 AM 80.6 °F 85.4 °F 73.4 °F 79% 29.89 in 10.0 mi SW 15.0 mph 20.7 mph N/A   Scattered Clouds
10:36 AM 80.6 °F 85.4 °F 73.4 °F 79% 29.89 in 10.0 mi WSW 17.3 mph 20.7 mph N/A   Scattered Clouds
10:59 AM 80.6 °F 85.4 °F 73.4 °F 79% 29.87 in 10.0 mi SW 16.1 mph - N/A   Clear
11:16 AM 82.4 °F 88.2 °F 73.4 °F 74% 29.88 in 10.0 mi WSW 15.0 mph 20.7 mph N/A   Scattered Clouds
11:35 AM 82.4 °F 89.5 °F 75.2 °F 79% 29.87 in 10.0 mi SW 13.8 mph - N/A   Clear
11:36 AM 82.4 °F 89.5 °F 75.2 °F 79% 29.87 in 10.0 mi SW 15.0 mph 21.9 mph N/A   Clear
11:55 AM 84.2 °F 92.3 °F 75.2 °F 74% 29.87 in 10.0 mi SW 15.0 mph 18.4 mph N/A   Clear
11:56 AM 84.2 °F 92.3 °F 75.2 °F 74% 29.87 in 10.0 mi SW 15.0 mph 18.4 mph N/A   Clear
12:19 PM 84.2 °F 90.9 °F 73.4 °F 70% 29.88 in 10.0 mi WSW 12.7 mph - N/A   Clear
12:36 PM 84.2 °F 92.3 °F 75.2 °F 74% 29.87 in 10.0 mi SW 12.7 mph - N/A   Clear
12:56 PM 84.2 °F 92.3 °F 75.2 °F 74% 29.86 in 10.0 mi SW 13.8 mph 19.6 mph N/A   Clear
1:15 PM 86.0 °F 95.1 °F 75.2 °F 70% 29.86 in 10.0 mi SW 15.0 mph - N/A   Clear
1:16 PM 86.0 °F 95.1 °F 75.2 °F 70% 29.86 in 10.0 mi SW 15.0 mph - N/A   Clear
1:35 PM 86.0 °F 95.1 °F 75.2 °F 70% 29.86 in 10.0 mi SW 12.7 mph - N/A   Clear
1:39 PM 86.0 °F 95.1 °F 75.2 °F 70% 29.86 in 10.0 mi WSW 9.2 mph - N/A   Clear
1:58 PM 87.8 °F 95.6 °F 73.4 °F 62% 29.86 in 10.0 mi WSW 12.7 mph - N/A   Clear
2:15 PM 87.8 °F 95.6 °F 73.4 °F 62% 29.87 in 10.0 mi WSW 11.5 mph - N/A   Scattered Clouds
2:35 PM 87.8 °F 97.6 °F 75.2 °F 66% 29.87 in 10.0 mi WSW 12.7 mph - N/A   Clear
2:55 PM 87.8 °F 97.6 °F 75.2 °F 66% 29.87 in 10.0 mi WSW 9.2 mph 16.1 mph N/A   Clear
3:18 PM 87.8 °F 97.6 °F 75.2 °F 66% 29.87 in 10.0 mi WSW 12.7 mph 17.3 mph N/A   Clear
3:37 PM 87.8 °F 95.6 °F 73.4 °F 62% 29.87 in 10.0 mi West 10.4 mph - N/A   Clear
3:56 PM 87.8 °F 97.6 °F 75.2 °F 66% 29.87 in 10.0 mi WSW 8.1 mph - N/A   Clear
4:15 PM 89.6 °F 99.8 °F 75.2 °F 62% 29.87 in 10.0 mi WSW 10.4 mph - N/A   Clear
4:35 PM 89.6 °F 99.8 °F 75.2 °F 62% 29.87 in 10.0 mi West 6.9 mph - N/A   Clear
4:39 PM 89.6 °F 98.2 °F 73.4 °F 59% 29.86 in 10.0 mi West 8.1 mph - N/A   Clear
4:57 PM 87.8 °F 95.6 °F 73.4 °F 62% 29.86 in 10.0 mi West 6.9 mph - N/A   Scattered Clouds
5:16 PM 89.6 °F 98.2 °F 73.4 °F 59% 29.85 in 10.0 mi West 6.9 mph - N/A   Clear
5:35 PM 89.6 °F 98.2 °F 73.4 °F 59% 29.85 in 10.0 mi West 8.1 mph - N/A   Clear
5:36 PM 89.6 °F 98.2 °F 73.4 °F 59% 29.85 in 10.0 mi West 8.1 mph - N/A   Clear
5:55 PM 89.6 °F 98.2 °F 73.4 °F 59% 29.84 in 10.0 mi West 6.9 mph - N/A   Clear
5:56 PM 89.6 °F 98.2 °F 73.4 °F 59% 29.85 in 10.0 mi West 8.1 mph - N/A   Clear
6:18 PM 89.6 °F 99.8 °F 75.2 °F 62% 29.85 in 10.0 mi West 6.9 mph - N/A   Clear
6:36 PM 87.8 °F 95.6 °F 73.4 °F 62% 29.84 in 10.0 mi West 6.9 mph - N/A   Clear
6:55 PM 87.8 °F 95.6 °F 73.4 °F 62% 29.84 in 10.0 mi West 5.8 mph - N/A   Clear
7:15 PM 86.0 °F 95.1 °F 75.2 °F 70% 29.83 in 10.0 mi West 3.5 mph - N/A   Clear
7:16 PM 86.0 °F 95.1 °F 75.2 °F 70% 29.83 in 10.0 mi West 4.6 mph - N/A   Clear
7:35 PM 86.0 °F 95.1 °F 75.2 °F 70% 29.84 in 10.0 mi West 3.5 mph - N/A   Clear
7:40 PM 86.0 °F 95.1 °F 75.2 °F 70% 29.84 in 10.0 mi West 3.5 mph - N/A   Clear
7:57 PM 86.0 °F 95.1 °F 75.2 °F 70% 29.85 in 10.0 mi Calm Calm - N/A   Scattered Clouds
8:15 PM 87.8 °F 97.6 °F 75.2 °F 66% 29.85 in 10.0 mi Calm Calm - N/A   Scattered Clouds
8:35 PM 87.8 °F 97.6 °F 75.2 °F 66% 29.85 in 10.0 mi West 3.5 mph - N/A   Scattered Clouds
8:55 PM 86.0 °F 95.1 °F 75.2 °F 70% 29.85 in 10.0 mi WNW 4.6 mph - N/A   Clear
8:56 PM 86.0 °F 95.1 °F 75.2 °F 70% 29.85 in 10.0 mi WNW 4.6 mph - N/A   Clear
9:18 PM 84.2 °F 92.3 °F 75.2 °F 74% 29.86 in 10.0 mi West 3.5 mph - N/A   Clear
9:35 PM 84.2 °F 90.9 °F 73.4 °F 70% 29.86 in 10.0 mi WNW 5.8 mph - N/A   Clear
9:55 PM 84.2 °F 90.9 °F 73.4 °F 70% 29.87 in 10.0 mi Calm Calm - N/A   Clear
9:56 PM 84.2 °F 90.9 °F 73.4 °F 70% 29.87 in 10.0 mi Calm Calm - N/A   Clear
10:15 PM 82.4 °F 88.2 °F 73.4 °F 74% 29.88 in 10.0 mi Calm Calm - N/A   Clear
10:19 PM 82.4 °F 88.2 °F 73.4 °F 74% 29.88 in 10.0 mi Calm Calm - N/A   Clear
10:37 PM 80.6 °F 86.2 °F 75.2 °F 84% 29.87 in 10.0 mi Calm Calm - N/A   Clear
10:56 PM 80.6 °F 85.4 °F 73.4 °F 79% 29.87 in 10.0 mi Calm Calm - N/A   Clear
11:15 PM 78.8 °F - 73.4 °F 83% 29.88 in 10.0 mi Calm Calm - N/A   Clear
11:16 PM 78.8 °F - 73.4 °F 83% 29.88 in 10.0 mi Calm Calm - N/A   Clear
11:35 PM 78.8 °F - 73.4 °F 83% 29.89 in 10.0 mi Calm Calm - N/A   Unknown
11:39 PM 78.8 °F - 73.4 °F 83% 29.89 in 10.0 mi Calm Calm - N/A   Unknown
11:58 PM 78.8 °F - 73.4 °F 83% 29.90 in 10.0 mi Calm Calm - N/A   Clear